createdAt,value
2023-05-05T04:17:50.400Z,9.63
2023-05-05T04:21:01.648Z,9.63
2023-05-05T04:24:11.364Z,9.23
2023-05-05T04:27:20.903Z,9.29
2023-05-05T04:30:29.385Z,9.39
2023-05-05T04:33:37.461Z,9.50
2023-05-05T04:36:45.571Z,9.59
2023-05-05T04:39:53.792Z,9.66
2023-05-05T04:42:59.838Z,9.86
2023-05-05T04:46:09.181Z,10.00
2023-05-05T04:49:14.340Z,10.17
2023-05-05T04:52:19.465Z,10.33
2023-05-05T04:55:23.525Z,10.49
2023-05-05T04:58:28.944Z,10.56
2023-05-05T05:01:33.041Z,10.64
2023-05-05T05:04:39.286Z,10.80
2023-05-05T05:07:43.316Z,10.83
2023-05-05T05:10:49.029Z,11.17
2023-05-05T05:13:53.432Z,11.52
2023-05-05T05:16:58.347Z,11.58
2023-05-05T05:20:06.047Z,11.64
2023-05-05T05:23:16.481Z,11.91
2023-05-05T05:26:22.896Z,12.18
2023-05-05T05:29:27.479Z,13.02
2023-05-05T05:32:32.904Z,13.77
2023-05-05T05:35:41.094Z,13.95
2023-05-05T05:38:49.335Z,14.04
2023-05-05T05:41:56.656Z,14.39
2023-05-05T05:45:04.658Z,14.28
2023-05-05T05:48:10.852Z,15.24
2023-05-05T05:51:18.489Z,16.01
2023-05-05T05:54:26.728Z,16.35
2023-05-05T05:57:33.707Z,15.99
2023-05-05T06:00:41.905Z,16.29
2023-05-05T06:03:51.227Z,16.50
2023-05-05T06:06:58.140Z,16.83
2023-05-05T06:10:25.798Z,17.39
2023-05-05T06:13:30.762Z,17.32
2023-05-05T06:16:35.191Z,18.10
2023-05-05T06:19:41.111Z,19.61
2023-05-05T06:22:48.874Z,20.64
2023-05-05T06:25:56.158Z,20.92
2023-05-05T06:29:00.594Z,20.13
2023-05-05T06:32:08.634Z,18.92
2023-05-05T06:35:16.375Z,18.35
2023-05-05T06:38:22.450Z,17.94
2023-05-05T06:41:31.009Z,18.13
2023-05-05T06:44:39.262Z,17.73
2023-05-05T06:47:47.556Z,18.06
2023-05-05T06:50:54.573Z,17.98
2023-05-05T06:54:00.698Z,18.81
2023-05-05T06:57:05.569Z,18.52
2023-05-05T07:00:15.600Z,18.51
2023-05-05T07:03:21.750Z,19.34
2023-05-05T07:06:27.340Z,19.42
2023-05-05T07:09:33.316Z,19.50
2023-05-05T07:12:39.611Z,19.46
2023-05-05T07:15:47.135Z,20.01
2023-05-05T07:18:53.873Z,20.31
2023-05-05T07:21:58.439Z,20.07
2023-05-05T07:25:05.408Z,20.03
2023-05-05T07:28:11.201Z,19.88
2023-05-05T07:31:14.988Z,19.69
2023-05-05T07:34:18.757Z,19.44
2023-05-05T07:37:23.552Z,19.56
2023-05-05T07:40:28.952Z,19.52
2023-05-05T07:43:34.161Z,19.60
2023-05-05T07:46:39.135Z,19.36
2023-05-05T07:49:45.647Z,19.91
2023-05-05T07:53:02.449Z,20.79
2023-05-05T07:56:19.346Z,21.46
2023-05-05T07:59:24.520Z,20.57
2023-05-05T08:02:30.802Z,21.40
2023-05-05T08:05:38.742Z,22.49
2023-05-05T08:08:43.988Z,21.84
2023-05-05T08:11:49.853Z,23.04
2023-05-05T08:14:54.665Z,23.06
2023-05-05T08:17:59.559Z,23.29
2023-05-05T08:21:08.084Z,23.36
2023-05-05T08:24:16.420Z,23.66
2023-05-05T08:27:21.733Z,24.17
2023-05-05T08:30:26.952Z,24.13
2023-05-05T08:33:33.527Z,24.49
2023-05-05T08:36:38.891Z,24.61
2023-05-05T08:39:44.040Z,24.46
2023-05-05T08:42:51.250Z,25.47
2023-05-05T08:45:58.151Z,25.21
2023-05-05T08:49:06.423Z,25.37
2023-05-05T08:52:14.631Z,25.81
2023-05-05T08:55:31.603Z,26.19
2023-05-05T08:58:38.587Z,25.93
2023-05-05T09:01:45.271Z,26.01
2023-05-05T09:04:50.052Z,26.71
2023-05-05T09:07:54.505Z,27.18
2023-05-05T09:10:58.583Z,27.57
2023-05-05T09:14:03.571Z,27.49
2023-05-05T09:17:24.568Z,28.24
2023-05-05T09:20:37.867Z,27.69
2023-05-05T09:24:13.158Z,27.96
2023-05-05T09:27:24.778Z,28.01
2023-05-05T09:30:28.922Z,28.25
2023-05-05T09:33:33.281Z,27.55
2023-05-05T09:36:45.428Z,27.98
2023-05-05T09:39:56.859Z,28.58
2023-05-05T09:43:04.201Z,29.24
2023-05-05T09:46:12.222Z,29.23
2023-05-05T09:49:19.132Z,28.71
2023-05-05T09:52:25.424Z,28.29
2023-05-05T09:55:30.920Z,30.12
2023-05-05T09:58:34.086Z,29.02
2023-05-05T10:01:38.607Z,30.92
2023-05-05T10:04:45.429Z,30.87
2023-05-05T10:07:52.261Z,29.18
2023-05-05T10:11:01.926Z,28.33
2023-05-05T10:14:08.590Z,27.97
2023-05-05T10:17:16.135Z,27.70
2023-05-05T10:20:23.491Z,28.44
2023-05-05T10:23:40.557Z,28.71
2023-05-05T10:26:49.146Z,29.38
2023-05-05T10:30:03.929Z,29.96
2023-05-05T10:36:33.277Z,32.16
2023-05-05T10:39:41.599Z,34.46
2023-05-05T10:42:49.226Z,32.88
2023-05-05T10:45:56.640Z,31.61
2023-05-05T10:49:33.252Z,30.62
2023-05-05T10:53:14.193Z,28.98
2023-05-05T10:56:27.050Z,27.22
2023-05-05T10:59:39.529Z,26.76
2023-05-05T11:02:45.285Z,28.12
2023-05-05T11:06:05.959Z,26.97
2023-05-05T11:09:29.233Z,28.41
2023-05-05T11:12:58.057Z,29.96
2023-05-05T11:16:05.673Z,28.62
2023-05-05T11:19:43.968Z,28.47
2023-05-05T11:23:09.070Z,27.89
2023-05-05T11:26:15.204Z,27.14
2023-05-05T11:29:19.306Z,26.74
2023-05-05T11:32:22.553Z,26.32
2023-05-05T11:36:05.997Z,26.68
2023-05-05T11:39:30.909Z,26.84
2023-05-05T11:42:36.055Z,26.84
2023-05-05T11:45:39.634Z,26.69
2023-05-05T11:48:47.878Z,25.55
2023-05-05T11:52:05.090Z,25.30
2023-05-05T11:55:10.730Z,25.36
2023-05-05T11:58:21.786Z,25.96
2023-05-05T12:01:27.347Z,25.29
2023-05-05T12:04:34.742Z,26.13
2023-05-05T12:07:39.273Z,26.16
2023-05-05T12:10:43.289Z,25.70
2023-05-05T12:13:47.974Z,26.04
2023-05-05T12:16:56.126Z,25.75
2023-05-05T12:20:00.620Z,26.13
2023-05-05T12:23:06.445Z,25.31
2023-05-05T12:26:30.484Z,25.43
2023-05-05T12:29:37.904Z,25.76
2023-05-05T12:32:43.478Z,25.33
2023-05-05T12:35:50.423Z,24.34
2023-05-05T12:38:54.042Z,24.74
2023-05-05T12:42:07.071Z,24.18
2023-05-05T12:45:18.097Z,23.90
2023-05-05T12:48:24.788Z,24.04
2023-05-05T12:51:34.680Z,23.54
2023-05-05T12:55:03.251Z,24.16
2023-05-05T12:58:10.627Z,23.86
2023-05-05T13:01:17.932Z,24.04
2023-05-05T13:04:24.849Z,23.10
2023-05-05T13:07:34.587Z,22.98
2023-05-05T13:10:56.985Z,23.63
2023-05-05T13:14:04.338Z,23.41
2023-05-05T13:17:08.855Z,23.75
2023-05-05T13:20:16.629Z,24.20
2023-05-05T13:23:25.369Z,24.20
2023-05-05T13:26:34.019Z,23.90
2023-05-05T13:29:42.950Z,23.92
2023-05-05T13:32:49.398Z,23.83
2023-05-05T13:35:55.674Z,24.06
2023-05-05T13:39:02.587Z,24.42
2023-05-05T13:42:10.264Z,24.86
2023-05-05T13:45:21.430Z,25.03
2023-05-05T13:48:29.694Z,25.05
2023-05-05T13:51:37.628Z,24.99
2023-05-05T13:54:46.561Z,23.31
2023-05-05T13:57:53.357Z,23.62
2023-05-05T14:01:00.259Z,23.89
2023-05-05T14:04:06.570Z,23.66
2023-05-05T14:07:13.037Z,23.20
2023-05-05T14:10:22.071Z,23.08
2023-05-05T14:13:28.246Z,23.31
2023-05-05T14:16:36.401Z,23.63
2023-05-05T14:19:45.002Z,23.90
2023-05-05T14:22:51.803Z,23.84
2023-05-05T14:25:59.304Z,23.52
2023-05-05T14:29:05.854Z,23.20
2023-05-05T14:32:14.125Z,23.57
2023-05-05T14:35:22.112Z,23.54
2023-05-05T14:38:26.619Z,23.72
2023-05-05T14:41:35.665Z,23.41
2023-05-05T14:44:42.107Z,23.58
2023-05-05T14:47:49.240Z,23.48
2023-05-05T14:50:55.057Z,23.46
2023-05-05T14:54:02.509Z,23.57
2023-05-05T14:57:09.668Z,23.37
2023-05-05T15:00:18.377Z,23.53
2023-05-05T15:03:25.755Z,23.72
2023-05-05T15:06:36.917Z,23.80
